Terminal Aerodrome Forecast
Issued by NWS Twin Cities, MN

Home | Current Version | Previous Version | Text Only | Print | Product List | Glossary On
Versions: 1 2 3 4 5 6 7 8 9 10 11 12 13 14 15 16 17 18 19 20
000
FTUS43 KMPX 290520
TAFSTC
TAF
KSTC 290520Z 2906/3006 14006KT P6SM SCT200
     FM290900 16005KT 4SM BR VCSH SCT080
     FM291200 18007KT P6SM FEW080 SCT200
     FM291900 21009KT P6SM SCT250
     FM292200 VRB03KT P6SM SCT060 BKN090
      TEMPO 2922/3001 -TSRA BKN060CB OVC090=

USA.gov is the U.S. government's official web portal to all federal, state and local government web resources and services.